San Francisco, CA (94117)

3:34 AM PDT on March 24, 2017 (GMT -0700)
Cole Valley | | Change Station

Elev 400 ft 37.76 °N, 122.45 °W | Updated 13 seconds ago

Rain
Rain
50.5 °F
Feels Like 50.5 °F
N
0.7
Wind Variable Wind from NW
Gusts 1.6 mph

Today
High -- | Low -- °F
--% Chance of Precip.
Yesterday
High -- | Low -- °F
Precip. -- in
Pressure 30.21 in
Visibility 10.0 miles
Clouds Few 2700 ft
Mostly Cloudy 7500 ft
Overcast 10000 ft
Dew Point 46 °F
Humidity 85%
Rainfall 0.00 in
Snow Depth Not available.
7:06 AM 7:25 PM
Waning Crescent, 16% visible
METAR KSFO 240956Z 12004KT 10SM FEW027 BKN075 OVC100 12/06 A3021 RMK AO2 SLP228 T01220056
Pressure 30.21 in
Visibility 10.0 miles
Clouds Few 2700 ft
Mostly Cloudy 7500 ft
Overcast 10000 ft
Dew Point 46 °F
Humidity 85%
Rainfall 0.00 in
Snow Depth Not available.
7:06 AM 7:25 PM
Waning Crescent, 16% visible
METAR KSFO 240956Z 12004KT 10SM FEW027 BKN075 OVC100 12/06 A3021 RMK AO2 SLP228 T01220056

Get Severe Weather Alerts

Thanks for signing up!

Be on the lookout for a verification email in your inbox.

You'll start receiving the daily forecast at 8 AM.

×

10-Day Weather Forecast

Almanac

Astronomy

Mar. 24, 2017 Rise Set
Actual Time
Civil Twilight
Nautical Twilight
Astronomical Twilight
Moon
Length of Visible Light
Length of Day
Tomorrow will be .
, % of the Moon is Illuminated

Today's Extremes

State Highs State Lows

Community

WunderPhotos

Upload Photos

1,962,540 photos uploaded!

WunderBlog® & News

Nearby

Air Quality

  Air Quality AQ Index Pollutant
Not available.

Snow Depth

Station Depth Elevation

Earthquake Activity

City Distance Mag. Time & Date
Minimum magnitude displayed is 2.5.

Earthquake Activity

City Distance Mag. Time & Date
Minimum magnitude displayed is 2.5.

Coastal Water Temperatures

Place Temperature

Stations

Nearby Weather Stations

Station Location Temp. Windchill Dew Point Humidity Wind Precip. Elev Updated Type
                   

Watches & Warnings

There are currently no watches in effect.